CheckWX is a tool to help pilots better visualize weather data.  It is not intended as a substitute for an official pre-flight weather briefing.

12:24:59 UTC

FQMA METAR
Maputo Airport
Maputo, Mozambique
Current

25 mins ago

FQMA 181200Z 15013G23KT 9999 SCT020 32/17 Q1012 NOSIG
Observed
Feb-18 @ 12:00 UTC
Wind
  • 150° at 13 KTS
  • Gusting to 23 KTS
Visibility
10,000+ meters
Flight Rules
VFR
Cloud Levels
  • Scattered at 2,000' AGL
Temperature
32°C / 90°F
Dewpoint
17°C / 63°F
Humidity
41%
Altimeter
29.88" Hg
Pressure
1011.92 hPa
Previous

1 hour ago

FQMA 181100Z 16015KT 9999 SCT020 32/18 Q1013 NOSIG
Observed
Feb-18 @ 11:00 UTC
Wind
  • 160° at 15 KTS
Visibility
10,000+ meters
Flight Rules
VFR
Cloud Levels
  • Scattered at 2,000' AGL
Temperature
32°C / 90°F
Dewpoint
18°C / 64°F
Humidity
43%
Altimeter
29.91" Hg
Pressure
1012.92 hPa
Previous

2 hours ago

FQMA 181000Z 17016KT 9999 SCT020 31/17 Q1013 NOSIG
Observed
Feb-18 @ 10:00 UTC
Wind
  • 170° at 16 KTS
Visibility
10,000+ meters
Flight Rules
VFR
Cloud Levels
  • Scattered at 2,000' AGL
Temperature
31°C / 88°F
Dewpoint
17°C / 63°F
Humidity
43%
Altimeter
29.91" Hg
Pressure
1012.92 hPa